Weather at Del Norte International Airport

Public forecast

Using degrees Celsius for public forecast. Weather courtesy of forecast.io.

Current aviation weather report (METAR) for Del Norte International Airport

Retrieved 2020/11/26 22:41 UTC (26 minutes ago):

MMAN 262241Z 12003KT 12SM BKN060 BKN200 27/13 A2994 RMK 8/071

Aviation forecast (TAF) for Del Norte International Airport

Retrieved 2020/11/26 18:12 UTC (5 hours ago):

TAF MMAN 261711Z 2618/2718 13010KT P6SM SCT100 SCT230 BECMG 2700/2701 00000KT FM270900 00000KT 3SM HZ OVC015 FM271600 14010KT P6SM SCT020